createdAt,value
2022-08-24T00:00:38.032Z,72.96
2022-08-24T00:03:13.234Z,73.03
2022-08-24T00:05:45.051Z,73.41
2022-08-24T00:08:19.037Z,73.38
2022-08-24T00:10:50.808Z,73.60
2022-08-24T00:13:22.368Z,73.65
2022-08-24T00:15:58.192Z,73.90
2022-08-24T00:18:31.545Z,74.02
2022-08-24T00:21:03.978Z,74.56
2022-08-24T00:23:36.275Z,74.67
2022-08-24T00:26:08.356Z,74.89
2022-08-24T00:28:42.750Z,74.96
2022-08-24T00:31:14.546Z,74.84
2022-08-24T00:33:49.097Z,75.08
2022-08-24T00:36:21.971Z,75.02
2022-08-24T00:38:53.836Z,74.90
2022-08-24T00:41:25.581Z,74.79
2022-08-24T00:44:01.701Z,74.63
2022-08-24T00:46:59.692Z,74.90
2022-08-24T00:50:00.529Z,75.08
2022-08-24T00:52:47.209Z,75.03
2022-08-24T00:55:26.431Z,75.01
2022-08-24T00:58:05.095Z,75.20
2022-08-24T01:00:45.502Z,75.03
2022-08-24T01:03:20.199Z,74.96
2022-08-24T01:05:52.451Z,74.91
2022-08-24T01:08:24.950Z,74.89
2022-08-24T01:11:00.888Z,74.96
2022-08-24T01:13:33.305Z,75.02
2022-08-24T01:16:08.128Z,75.36
2022-08-24T01:18:49.783Z,75.56
2022-08-24T01:21:43.293Z,75.50
2022-08-24T01:24:15.312Z,75.39
2022-08-24T01:26:49.823Z,75.43
2022-08-24T01:29:29.085Z,75.53
2022-08-24T01:32:02.950Z,76.00
2022-08-24T01:34:34.795Z,76.09
2022-08-24T01:37:09.711Z,75.86
2022-08-24T01:39:44.769Z,75.99
2022-08-24T01:42:17.038Z,76.21
2022-08-24T01:44:48.872Z,76.35
2022-08-24T01:47:20.948Z,76.21
2022-08-24T01:49:52.644Z,76.50
2022-08-24T01:52:38.870Z,76.21
2022-08-24T01:55:19.060Z,76.14
2022-08-24T01:57:57.037Z,76.20
2022-08-24T02:00:29.893Z,76.36
2022-08-24T02:03:02.899Z,76.25
2022-08-24T02:05:36.410Z,76.32
2022-08-24T02:08:08.204Z,76.26
2022-08-24T02:10:40.109Z,76.28
2022-08-24T02:13:11.797Z,76.25
2022-08-24T02:15:44.152Z,76.36
2022-08-24T02:18:20.036Z,76.33
2022-08-24T02:20:52.088Z,76.43
2022-08-24T02:23:25.817Z,75.99
2022-08-24T02:25:58.109Z,76.00
2022-08-24T02:28:30.184Z,75.87
2022-08-24T02:31:05.918Z,75.94
2022-08-24T02:33:39.066Z,76.42
2022-08-24T02:36:25.350Z,76.62
2022-08-24T02:39:01.272Z,76.52
2022-08-24T02:41:32.893Z,76.52
2022-08-24T02:44:06.223Z,76.98
2022-08-24T02:46:38.871Z,77.11
2022-08-24T02:49:12.606Z,77.02
2022-08-24T02:51:46.922Z,76.92
2022-08-24T02:54:22.195Z,76.73
2022-08-24T02:56:56.639Z,76.65
2022-08-24T02:59:29.192Z,76.54
2022-08-24T03:02:01.033Z,76.54
2022-08-24T03:04:32.739Z,76.25
2022-08-24T03:07:06.166Z,76.03
2022-08-24T03:09:37.861Z,76.09
2022-08-24T03:12:09.585Z,76.35
2022-08-24T03:14:42.322Z,76.58
2022-08-24T03:17:13.977Z,76.58
2022-08-24T03:19:45.620Z,76.46
2022-08-24T03:22:17.331Z,76.53
2022-08-24T03:24:52.924Z,76.43
2022-08-24T03:27:25.177Z,76.59
2022-08-24T03:29:57.593Z,76.68
2022-08-24T03:32:29.742Z,76.56
2022-08-24T03:35:02.317Z,76.54
2022-08-24T03:37:34.170Z,76.30
2022-08-24T03:40:22.189Z,76.34
2022-08-24T03:42:55.524Z,76.05
2022-08-24T03:45:28.319Z,76.08
2022-08-24T03:48:02.588Z,76.62
2022-08-24T03:50:35.280Z,76.40
2022-08-24T03:53:07.324Z,76.22
2022-08-24T03:55:39.084Z,76.36
2022-08-24T03:58:10.952Z,76.36
2022-08-24T04:00:44.506Z,76.27
2022-08-24T04:03:18.746Z,76.32
2022-08-24T04:05:50.479Z,76.18
2022-08-24T04:08:24.357Z,76.37
2022-08-24T04:10:56.068Z,76.66
2022-08-24T04:13:33.534Z,76.71
2022-08-24T04:16:10.756Z,76.60
2022-08-24T04:18:44.190Z,76.59
2022-08-24T04:21:23.013Z,76.21
2022-08-24T04:23:55.984Z,76.22
2022-08-24T04:26:44.571Z,76.40
2022-08-24T04:29:19.505Z,76.21
2022-08-24T04:31:56.162Z,76.23
2022-08-24T04:34:28.870Z,76.41
2022-08-24T04:37:03.020Z,76.34
2022-08-24T04:39:34.997Z,76.37
2022-08-24T04:42:15.685Z,76.60
2022-08-24T04:44:47.808Z,76.70
2022-08-24T04:47:19.952Z,76.50
2022-08-24T04:49:52.727Z,76.27
2022-08-24T04:52:24.680Z,76.14
2022-08-24T04:54:57.454Z,76.12
2022-08-24T04:57:32.772Z,75.87
2022-08-24T05:00:06.514Z,75.87
2022-08-24T05:02:44.863Z,75.89
2022-08-24T05:05:17.881Z,75.96
2022-08-24T05:07:56.032Z,76.04
2022-08-24T05:10:33.671Z,75.96
2022-08-24T05:13:07.440Z,75.94
2022-08-24T05:15:46.348Z,75.96
2022-08-24T05:18:18.205Z,75.91
2022-08-24T05:20:50.069Z,75.66
2022-08-24T05:23:23.176Z,75.64
2022-08-24T05:26:11.408Z,75.75
2022-08-24T05:28:43.644Z,75.99
2022-08-24T05:31:21.684Z,76.03
2022-08-24T05:33:53.785Z,76.12
2022-08-24T05:36:32.166Z,76.24
2022-08-24T05:39:11.139Z,76.16
2022-08-24T05:41:46.285Z,76.30
2022-08-24T05:44:27.879Z,76.50
2022-08-24T05:47:03.361Z,76.79
2022-08-24T05:49:41.598Z,77.18
2022-08-24T05:52:14.464Z,77.20
2022-08-24T05:54:46.215Z,77.23
2022-08-24T05:57:24.352Z,77.06
2022-08-24T06:00:17.484Z,76.73
2022-08-24T06:02:53.420Z,76.61
2022-08-24T06:05:26.709Z,76.40
2022-08-24T06:07:58.313Z,76.22
2022-08-24T06:10:36.670Z,75.94
2022-08-24T06:13:09.720Z,76.10
2022-08-24T06:15:42.757Z,76.66
2022-08-24T06:18:17.656Z,76.61
2022-08-24T06:20:49.498Z,76.54
2022-08-24T06:23:21.954Z,76.87
2022-08-24T06:26:23.265Z,77.17
2022-08-24T06:28:55.358Z,77.83
2022-08-24T06:31:28.081Z,77.91
2022-08-24T06:34:01.221Z,77.76
2022-08-24T06:36:34.021Z,78.31
2022-08-24T06:39:06.460Z,78.54
2022-08-24T06:41:43.796Z,78.60
2022-08-24T06:44:16.819Z,78.79
2022-08-24T06:46:56.292Z,78.65
2022-08-24T06:49:28.053Z,79.06
2022-08-24T06:52:00.023Z,79.08
2022-08-24T06:54:32.485Z,79.05
2022-08-24T06:57:05.500Z,78.59
2022-08-24T06:59:38.129Z,78.42
2022-08-24T07:02:10.391Z,78.02
2022-08-24T07:04:43.113Z,77.81
2022-08-24T07:07:20.869Z,77.96
2022-08-24T07:09:52.774Z,77.64
2022-08-24T07:12:24.932Z,77.48
2022-08-24T07:14:57.161Z,77.33
2022-08-24T07:17:29.508Z,77.08
2022-08-24T07:20:05.136Z,77.04
2022-08-24T07:23:07.882Z,76.83
2022-08-24T07:25:40.841Z,76.69
2022-08-24T07:28:14.577Z,76.52
2022-08-24T07:30:48.300Z,76.48
2022-08-24T07:33:20.591Z,76.57
2022-08-24T07:35:52.249Z,77.15
2022-08-24T07:38:28.251Z,76.92
2022-08-24T07:41:38.198Z,76.62
2022-08-24T07:43:53.301Z,75.81
2022-08-24T07:46:25.124Z,75.50
2022-08-24T07:49:10.935Z,74.92
2022-08-24T07:51:46.694Z,74.60
2022-08-24T07:54:20.729Z,74.55
2022-08-24T07:56:56.440Z,74.51
2022-08-24T07:59:28.074Z,74.62
2022-08-24T08:02:01.286Z,74.56
2022-08-24T08:04:33.131Z,73.99
2022-08-24T08:07:07.373Z,74.02
2022-08-24T08:09:40.866Z,73.68
2022-08-24T08:12:15.393Z,73.09
2022-08-24T08:14:58.034Z,72.89
2022-08-24T08:17:29.721Z,72.71
2022-08-24T08:20:02.130Z,72.59
2022-08-24T08:22:53.398Z,72.67
2022-08-24T08:25:57.664Z,72.30
2022-08-24T08:28:42.659Z,71.83
2022-08-24T08:31:14.706Z,71.81
2022-08-24T08:33:46.969Z,71.78
2022-08-24T08:36:21.317Z,72.03
2022-08-24T08:38:56.378Z,71.70
2022-08-24T08:41:58.578Z,72.54
2022-08-24T08:44:53.356Z,72.14
2022-08-24T08:47:57.744Z,71.36
2022-08-24T08:50:56.816Z,71.63
2022-08-24T08:53:54.749Z,71.62
2022-08-24T08:56:34.935Z,71.04
2022-08-24T08:59:35.890Z,69.74
2022-08-24T09:02:29.273Z,70.04
2022-08-24T09:05:27.117Z,68.44
2022-08-24T09:08:09.247Z,68.95
2022-08-24T09:11:01.869Z,68.21
2022-08-24T09:14:03.255Z,68.12
2022-08-24T09:17:00.694Z,67.98
2022-08-24T09:20:05.356Z,67.97
2022-08-24T09:22:43.491Z,67.77
2022-08-24T09:25:36.056Z,66.56
2022-08-24T09:28:36.036Z,65.66
2022-08-24T09:34:17.576Z,65.50
2022-08-24T09:37:26.134Z,65.34
2022-08-24T09:40:04.511Z,64.80
2022-08-24T09:43:17.019Z,64.34
2022-08-24T09:46:06.889Z,63.25
2022-08-24T09:49:07.187Z,62.57
2022-08-24T09:52:09.266Z,61.36
2022-08-24T09:55:14.965Z,62.06
2022-08-24T09:58:24.121Z,61.58
2022-08-24T10:01:12.336Z,61.31
2022-08-24T10:04:08.418Z,61.34
2022-08-24T10:07:01.695Z,60.61
2022-08-24T10:10:02.422Z,60.65
2022-08-24T10:12:45.428Z,59.91
2022-08-24T10:15:38.414Z,58.22
2022-08-24T10:18:33.450Z,58.34
2022-08-24T10:21:25.557Z,57.31
2022-08-24T10:24:33.413Z,57.07
2022-08-24T10:27:32.488Z,57.29
2022-08-24T10:30:36.372Z,56.88
2022-08-24T10:33:33.396Z,57.61
2022-08-24T10:36:21.151Z,57.36
2022-08-24T10:39:43.242Z,55.54
2022-08-24T10:42:45.953Z,56.48
2022-08-24T10:45:49.999Z,55.99
2022-08-24T10:48:33.235Z,55.37
2022-08-24T10:51:25.161Z,53.66
2022-08-24T10:53:57.374Z,53.90
2022-08-24T10:56:36.017Z,54.23
2022-08-24T10:59:29.804Z,54.18
2022-08-24T11:02:12.889Z,54.63
2022-08-24T11:04:56.412Z,54.56
2022-08-24T11:07:28.745Z,54.85
2022-08-24T11:10:06.560Z,54.39
2022-08-24T11:12:45.002Z,54.10
2022-08-24T11:15:24.041Z,53.60
2022-08-24T11:17:58.119Z,53.58
2022-08-24T11:20:34.437Z,52.50
2022-08-24T11:23:10.238Z,52.59
2022-08-24T11:26:02.827Z,51.79
2022-08-24T11:28:46.788Z,52.10
2022-08-24T11:31:47.473Z,52.27
2022-08-24T11:34:37.937Z,52.60
2022-08-24T11:37:15.802Z,51.72
2022-08-24T11:39:47.558Z,52.77
2022-08-24T11:42:29.632Z,53.21
2022-08-24T11:45:14.993Z,53.95
2022-08-24T11:48:01.945Z,53.41
2022-08-24T11:50:48.685Z,52.95
2022-08-24T11:54:00.326Z,52.30
2022-08-24T11:56:45.849Z,52.28
2022-08-24T11:59:35.682Z,51.01
2022-08-24T12:02:14.467Z,50.87
2022-08-24T12:05:14.328Z,51.03
2022-08-24T12:07:56.657Z,50.65
2022-08-24T12:11:05.673Z,50.35
2022-08-24T12:14:00.941Z,49.79
2022-08-24T12:16:51.898Z,50.10
2022-08-24T12:19:34.109Z,49.97
2022-08-24T12:22:09.796Z,49.92
2022-08-24T12:24:45.538Z,48.89
2022-08-24T12:27:32.369Z,48.69
2022-08-24T12:30:06.512Z,47.70
2022-08-24T12:33:03.586Z,47.81
2022-08-24T12:35:44.134Z,47.34
2022-08-24T12:38:38.719Z,46.58
2022-08-24T12:41:19.582Z,45.80
2022-08-24T12:44:25.462Z,46.87
2022-08-24T12:46:57.364Z,46.89
2022-08-24T12:49:46.156Z,45.50
2022-08-24T12:52:55.771Z,44.44
2022-08-24T12:55:55.165Z,45.63
2022-08-24T12:59:00.453Z,46.53
2022-08-24T13:01:39.842Z,46.09
2022-08-24T13:04:33.079Z,45.84
2022-08-24T13:07:10.742Z,44.95
2022-08-24T13:09:46.241Z,46.00
2022-08-24T13:12:49.525Z,45.69
2022-08-24T13:15:24.569Z,46.15
2022-08-24T13:18:21.056Z,45.62
2022-08-24T13:20:55.493Z,44.59
2022-08-24T13:23:27.397Z,45.45
2022-08-24T13:26:23.179Z,45.51
2022-08-24T13:28:57.156Z,45.63
2022-08-24T13:31:42.242Z,45.30
2022-08-24T13:34:14.706Z,45.90
2022-08-24T13:37:18.689Z,46.79
2022-08-24T13:40:14.049Z,46.03
2022-08-24T13:43:16.197Z,46.42
2022-08-24T13:46:13.021Z,46.21
2022-08-24T13:48:54.419Z,46.51
2022-08-24T13:51:45.408Z,45.84
2022-08-24T13:54:32.590Z,46.62
2022-08-24T13:57:32.775Z,47.13
2022-08-24T14:00:17.923Z,46.79
2022-08-24T14:03:26.730Z,46.16
2022-08-24T14:06:17.005Z,46.80
2022-08-24T14:09:02.689Z,47.77
2022-08-24T14:11:46.019Z,47.65
2022-08-24T14:14:36.077Z,47.29
2022-08-24T14:17:40.238Z,47.72
2022-08-24T14:20:33.587Z,47.73
2022-08-24T14:23:31.088Z,49.53
2022-08-24T14:26:33.492Z,49.39
2022-08-24T14:29:19.851Z,49.10
2022-08-24T14:32:11.843Z,48.41
2022-08-24T14:35:15.936Z,49.18
2022-08-24T14:37:56.926Z,48.78
2022-08-24T14:40:42.791Z,47.98
2022-08-24T14:43:30.056Z,46.77
2022-08-24T14:46:33.831Z,46.62
2022-08-24T14:49:35.993Z,47.02
2022-08-24T14:52:23.624Z,47.87
2022-08-24T14:55:20.437Z,48.09
2022-08-24T14:58:25.466Z,49.01
2022-08-24T15:01:10.001Z,48.64
2022-08-24T15:04:12.205Z,49.06
2022-08-24T15:06:53.772Z,49.76
2022-08-24T15:09:35.568Z,49.88
2022-08-24T15:12:23.177Z,50.44
2022-08-24T15:15:02.072Z,50.70
2022-08-24T15:18:11.637Z,51.10
2022-08-24T15:21:18.106Z,51.63
2022-08-24T15:24:15.655Z,51.24
2022-08-24T15:27:05.859Z,51.02
2022-08-24T15:29:56.937Z,51.14
2022-08-24T15:32:48.910Z,51.17
2022-08-24T15:35:32.673Z,51.53
2022-08-24T15:38:25.587Z,51.62
2022-08-24T15:41:19.194Z,51.83
2022-08-24T15:43:56.797Z,52.28
2022-08-24T15:46:38.179Z,51.89
2022-08-24T15:49:28.750Z,51.91
2022-08-24T15:52:30.068Z,52.49
2022-08-24T15:55:04.365Z,52.41
2022-08-24T15:57:41.513Z,52.23
2022-08-24T16:00:38.189Z,53.25
2022-08-24T16:03:22.210Z,52.97
2022-08-24T16:05:56.721Z,53.37
2022-08-24T16:08:57.143Z,53.60
2022-08-24T16:11:38.357Z,54.03
2022-08-24T16:14:35.737Z,54.57
2022-08-24T16:17:43.015Z,54.80
2022-08-24T16:20:35.421Z,54.89
2022-08-24T16:23:13.499Z,55.32
2022-08-24T16:25:50.555Z,55.33
2022-08-24T16:28:22.762Z,55.77
2022-08-24T16:31:07.362Z,55.73
2022-08-24T16:33:47.640Z,55.66
2022-08-24T16:36:20.410Z,55.80
2022-08-24T16:38:52.047Z,55.72
2022-08-24T16:41:24.890Z,55.78
2022-08-24T16:43:56.488Z,56.30
2022-08-24T16:46:28.192Z,56.08
2022-08-24T16:48:59.928Z,56.25
2022-08-24T16:51:34.677Z,56.25
2022-08-24T16:54:10.470Z,56.54
2022-08-24T16:56:43.518Z,56.44
2022-08-24T16:59:20.065Z,56.89
2022-08-24T17:01:51.712Z,56.56
2022-08-24T17:04:23.493Z,56.39
2022-08-24T17:06:55.594Z,56.31
2022-08-24T17:09:27.337Z,56.43
2022-08-24T17:11:58.919Z,56.07
2022-08-24T17:14:33.199Z,56.23
2022-08-24T17:17:07.646Z,56.30
2022-08-24T17:19:40.381Z,56.36
2022-08-24T17:22:16.554Z,56.10
2022-08-24T17:24:48.980Z,56.22
2022-08-24T17:27:28.842Z,56.48
2022-08-24T17:30:05.255Z,56.67
2022-08-24T17:32:37.281Z,56.63
2022-08-24T17:35:09.349Z,56.79
2022-08-24T17:37:41.581Z,56.77
2022-08-24T17:40:17.931Z,56.56
2022-08-24T17:42:51.664Z,56.79
2022-08-24T17:45:23.971Z,56.99
2022-08-24T17:47:55.645Z,56.95
2022-08-24T17:50:28.607Z,57.81
2022-08-24T17:53:00.590Z,58.13
2022-08-24T17:55:32.391Z,58.29
2022-08-24T17:58:07.187Z,58.39
2022-08-24T18:00:39.108Z,58.63
2022-08-24T18:03:16.346Z,59.01
2022-08-24T18:05:48.366Z,58.80
2022-08-24T18:08:19.934Z,59.25
2022-08-24T18:10:53.614Z,60.11
2022-08-24T18:13:25.172Z,59.93
2022-08-24T18:15:56.771Z,60.44
2022-08-24T18:18:31.065Z,60.72
2022-08-24T18:21:02.651Z,60.83
2022-08-24T18:23:34.823Z,61.06
2022-08-24T18:26:21.460Z,61.16
2022-08-24T18:29:11.111Z,61.30
2022-08-24T18:31:43.941Z,61.82
2022-08-24T18:34:19.455Z,62.08
2022-08-24T18:36:52.143Z,62.32
2022-08-24T18:39:24.028Z,62.69
2022-08-24T18:42:00.311Z,62.89
2022-08-24T18:44:32.083Z,63.10
2022-08-24T18:47:03.854Z,63.60
2022-08-24T18:49:35.858Z,64.03
2022-08-24T18:52:09.910Z,64.04
2022-08-24T18:54:47.490Z,64.62
2022-08-24T18:57:20.001Z,64.57
2022-08-24T18:59:51.671Z,65.17
2022-08-24T19:02:30.385Z,65.38
2022-08-24T19:05:12.724Z,66.09
2022-08-24T19:07:47.935Z,66.28
2022-08-24T19:10:25.838Z,66.47
2022-08-24T19:13:02.055Z,66.63
2022-08-24T19:15:39.908Z,67.25
2022-08-24T19:18:12.397Z,67.52
2022-08-24T19:20:49.263Z,67.75
2022-08-24T19:23:34.233Z,68.26
2022-08-24T19:26:06.287Z,68.43
2022-08-24T19:28:38.083Z,68.78
2022-08-24T19:31:12.958Z,69.29
2022-08-24T19:33:46.725Z,68.86
2022-08-24T19:36:22.345Z,69.73
2022-08-24T19:38:54.199Z,69.70
2022-08-24T19:41:36.432Z,70.03
2022-08-24T19:44:27.878Z,70.07
2022-08-24T19:46:59.722Z,70.06
2022-08-24T19:49:33.177Z,70.56
2022-08-24T19:52:04.802Z,70.65
2022-08-24T19:54:39.558Z,71.00
2022-08-24T19:57:35.936Z,71.10
2022-08-24T20:00:17.085Z,70.58
2022-08-24T20:02:50.978Z,71.60
2022-08-24T20:05:25.291Z,71.18
2022-08-24T20:07:57.893Z,71.91
2022-08-24T20:10:31.206Z,71.54
2022-08-24T20:13:03.330Z,72.17
2022-08-24T20:15:35.243Z,71.86
2022-08-24T20:18:07.820Z,72.21
2022-08-24T20:20:39.446Z,72.78
2022-08-24T20:23:13.814Z,72.57
2022-08-24T20:25:46.265Z,73.11
2022-08-24T20:28:29.260Z,73.13
2022-08-24T20:31:01.826Z,73.57
2022-08-24T20:33:34.085Z,73.76
2022-08-24T20:36:07.150Z,73.99
2022-08-24T20:38:39.724Z,74.13
2022-08-24T20:41:13.974Z,74.35
2022-08-24T20:43:49.052Z,73.97
2022-08-24T20:46:21.031Z,74.24
2022-08-24T20:48:55.554Z,74.37
2022-08-24T20:51:27.805Z,74.74
2022-08-24T20:54:00.239Z,74.46
2022-08-24T20:56:35.316Z,75.17
2022-08-24T20:59:09.747Z,75.00
2022-08-24T21:01:42.903Z,75.04
2022-08-24T21:04:14.603Z,75.25
2022-08-24T21:06:46.260Z,75.47
2022-08-24T21:09:22.953Z,75.26
2022-08-24T21:11:54.600Z,75.45
2022-08-24T21:14:26.290Z,75.63
2022-08-24T21:16:58.626Z,76.01
2022-08-24T21:19:31.265Z,75.81
2022-08-24T21:22:03.886Z,76.31
2022-08-24T21:24:35.505Z,76.60
2022-08-24T21:27:08.359Z,76.64
2022-08-24T21:29:42.719Z,76.73
2022-08-24T21:32:32.915Z,76.97
2022-08-24T21:35:04.877Z,77.23
2022-08-24T21:37:37.521Z,76.99
2022-08-24T21:40:09.670Z,77.34
2022-08-24T21:42:41.321Z,77.02
2022-08-24T21:45:12.926Z,77.78
2022-08-24T21:47:46.068Z,77.80
2022-08-24T21:50:18.205Z,77.43
2022-08-24T21:52:53.475Z,78.07
2022-08-24T21:55:26.974Z,78.09
2022-08-24T21:57:58.580Z,78.29
2022-08-24T22:00:30.224Z,77.99
2022-08-24T22:03:05.897Z,78.26
2022-08-24T22:05:37.860Z,78.33
2022-08-24T22:08:09.447Z,78.31
2022-08-24T22:10:41.591Z,78.00
2022-08-24T22:13:13.245Z,78.38
2022-08-24T22:15:44.877Z,78.85
2022-08-24T22:18:16.628Z,78.55
2022-08-24T22:20:48.257Z,78.79
2022-08-24T22:23:19.908Z,79.11
2022-08-24T22:25:53.417Z,78.87
2022-08-24T22:28:25.053Z,79.34
2022-08-24T22:30:56.837Z,79.44
2022-08-24T22:33:29.105Z,79.40
2022-08-24T22:36:00.731Z,79.76
2022-08-24T22:38:32.309Z,79.82
2022-08-24T22:41:03.970Z,80.30
2022-08-24T22:43:54.243Z,80.42
2022-08-24T22:46:26.281Z,80.30
2022-08-24T22:48:59.378Z,80.19
2022-08-24T22:51:31.245Z,80.45
2022-08-24T22:54:03.168Z,80.74
2022-08-24T22:56:38.529Z,80.90
2022-08-24T22:59:18.328Z,80.85
2022-08-24T23:01:52.329Z,80.73
2022-08-24T23:04:27.867Z,80.85
2022-08-24T23:07:00.256Z,81.22
2022-08-24T23:09:44.816Z,81.28
2022-08-24T23:12:20.203Z,81.20
2022-08-24T23:14:53.076Z,81.07
2022-08-24T23:17:24.743Z,81.02
2022-08-24T23:20:05.817Z,81.21
2022-08-24T23:22:40.434Z,81.54
2022-08-24T23:25:13.236Z,81.53
2022-08-24T23:27:48.042Z,81.76
2022-08-24T23:30:22.206Z,81.48
2022-08-24T23:32:53.761Z,81.90
2022-08-24T23:35:25.459Z,82.27
2022-08-24T23:37:57.580Z,82.55
2022-08-24T23:40:29.196Z,82.01
2022-08-24T23:43:00.765Z,82.23
2022-08-24T23:45:32.409Z,82.44
2022-08-24T23:48:04.356Z,82.73
2022-08-24T23:50:36.121Z,82.76
2022-08-24T23:53:07.679Z,82.58
2022-08-24T23:55:39.304Z,82.72
2022-08-24T23:58:10.885Z,82.61
